Time;durP1;ratioP1;P1;durP2;ratioP2;P2;SDS_P1;SDS_P2;PMS_P1;PMS_P2;Temp;Humidity;BMP_temperature;BMP_pressure;BME280_temperature;BME280_humidity;BME280_pressure;Samples;Min_cycle;Max_cycle;Signal;HPM_P1;HPM_P2
2021/12/20 00:00:17;;;;;;;19.20;11.83;;;;;;;-0.06;100.00;95233.13;4951753;29;20679;-73
2021/12/20 00:02:47;;;;;;;18.30;11.50;;;;;;;-0.18;100.00;95230.81;4960554;28;20185;-73
2021/12/20 00:05:14;;;;;;;19.43;12.53;;;;;;;-0.10;100.00;95224.31;4947875;29;20194;-73
2021/12/20 00:07:40;;;;;;;17.93;11.50;;;;;;;-0.16;100.00;95229.28;4947683;29;20565;-73
2021/12/20 00:10:06;;;;;;;21.33;12.83;;;;;;;-0.16;100.00;95221.25;4950324;28;20198;-73
2021/12/20 00:12:32;;;;;;;16.87;11.73;;;;;;;-0.08;100.00;95225.47;4952399;28;20280;-73
2021/12/20 00:14:58;;;;;;;17.53;12.10;;;;;;;-0.07;100.00;95223.56;4952924;29;20288;-73
2021/12/20 00:17:23;;;;;;;17.40;11.50;;;;;;;-0.05;100.00;95227.38;4951436;28;20688;-73
2021/12/20 00:19:49;;;;;;;18.57;12.43;;;;;;;-0.09;100.00;95223.94;4948061;29;20657;-73
2021/12/20 00:22:15;;;;;;;16.73;11.50;;;;;;;-0.18;100.00;95220.84;4952201;29;20554;-73
2021/12/20 00:24:40;;;;;;;18.53;12.60;;;;;;;-0.16;100.00;95221.25;4969604;28;20518;-73
2021/12/20 00:27:08;;;;;;;18.57;12.53;;;;;;;-0.08;100.00;95238.13;4949476;29;20264;-72
2021/12/20 00:29:35;;;;;;;20.60;12.37;;;;;;;-0.12;100.00;95215.88;4935073;29;20200;-73
2021/12/20 00:32:00;;;;;;;17.77;11.20;;;;;;;-0.16;100.00;95215.09;4956478;28;20262;-73
2021/12/20 00:34:26;;;;;;;18.60;11.43;;;;;;;-0.11;100.00;95220.09;4960397;28;20229;-73
2021/12/20 00:37:01;;;;;;;20.13;12.77;;;;;;;-0.18;100.00;95206.66;4940521;28;20201;-73
2021/12/20 00:42:10;;;;;;;22.07;12.90;;;;;;;-0.15;100.00;95214.72;4951421;28;20345;-73
2021/12/20 00:44:36;;;;;;;17.97;12.23;;;;;;;-0.24;100.00;95210.88;4952711;28;20288;-73
2021/12/20 00:47:02;;;;;;;21.03;13.70;;;;;;;-0.11;100.00;95215.50;4947588;28;20205;-73
2021/12/20 00:49:28;;;;;;;19.87;12.87;;;;;;;-0.11;100.00;95207.44;4939529;29;20197;-73
2021/12/20 00:51:53;;;;;;;20.83;13.43;;;;;;;-0.11;100.00;95212.03;4956219;28;20234;-73
2021/12/20 00:54:19;;;;;;;21.17;11.80;;;;;;;-0.23;100.00;95217.75;4956586;28;20202;-73
2021/12/20 00:56:45;;;;;;;21.23;13.03;;;;;;;-0.14;100.00;95218.19;4941268;28;20222;-73
2021/12/20 00:59:10;;;;;;;19.40;12.70;;;;;;;-0.22;100.00;95203.22;4950899;28;20205;-73
2021/12/20 01:01:36;;;;;;;22.30;12.70;;;;;;;-0.18;100.00;95210.13;4956905;28;20229;-73
2021/12/20 01:04:03;;;;;;;20.87;13.60;;;;;;;-0.13;100.00;95193.63;4972596;28;20193;-73
2021/12/20 01:06:28;;;;;;;23.40;14.37;;;;;;;-0.28;100.00;95205.50;4956566;28;20201;-73
2021/12/20 01:08:54;;;;;;;22.87;13.73;;;;;;;-0.28;100.00;95207.41;4954749;28;20198;-73
2021/12/20 01:11:24;;;;;;;22.90;13.57;;;;;;;-0.23;100.00;95213.19;4936870;29;20218;-73
2021/12/20 01:13:50;;;;;;;21.43;12.93;;;;;;;-0.26;100.00;95229.25;4945901;29;20221;-73
2021/12/20 01:16:15;;;;;;;20.13;13.20;;;;;;;-0.29;100.00;95201.25;4954085;29;20217;-72
2021/12/20 01:18:42;;;;;;;25.33;13.90;;;;;;;-0.27;100.00;95203.56;4943917;28;20201;-72
2021/12/20 01:21:08;;;;;;;22.87;13.37;;;;;;;-0.35;100.00;95189.38;4946037;29;20853;-73
2021/12/20 01:23:36;;;;;;;20.13;13.43;;;;;;;-0.24;100.00;95192.09;4956333;28;20698;-73
2021/12/20 01:26:03;;;;;;;20.87;13.13;;;;;;;-0.27;100.00;95198.19;4951290;29;20540;-73
2021/12/20 01:28:29;;;;;;;21.97;13.33;;;;;;;-0.36;100.00;95184.41;4947407;29;20603;-73
2021/12/20 01:30:55;;;;;;;21.17;13.07;;;;;;;-0.29;100.00;95190.53;4960544;28;20291;-72
2021/12/20 01:33:20;;;;;;;18.37;11.23;;;;;;;-0.36;100.00;95198.59;4963114;28;20681;-73
2021/12/20 01:35:46;;;;;;;22.90;13.23;;;;;;;-0.31;100.00;95192.84;4954763;29;20198;-73
2021/12/20 01:38:12;;;;;;;22.93;13.47;;;;;;;-0.29;100.00;95203.94;4954236;29;20723;-73
2021/12/20 01:40:38;;;;;;;20.27;13.30;;;;;;;-0.26;100.00;95205.88;4941128;28;20711;-73
2021/12/20 01:43:08;;;;;;;23.57;14.40;;;;;;;-0.20;100.00;95203.56;4937883;28;20364;-73
2021/12/20 01:45:35;;;;;;;21.67;13.23;;;;;;;-0.29;100.00;95203.19;4958613;28;20198;-72
2021/12/20 01:48:07;;;;;;;21.67;13.90;;;;;;;-0.23;100.00;95191.72;4965459;28;20204;-72
2021/12/20 01:53:25;;;;;;;21.43;12.83;;;;;;;-0.12;100.00;95197.09;4925560;29;20222;-73
2021/12/20 01:55:53;;;;;;;22.57;12.90;;;;;;;-0.24;100.00;95186.72;4949415;29;20288;-73
2021/12/20 01:58:19;;;;;;;20.30;12.70;;;;;;;-0.14;100.00;95186.72;4954742;28;20193;-72
2021/12/20 02:03:44;;;;;;;21.30;12.60;;;;;;;-0.19;100.00;95180.97;4943619;28;20299;-73
2021/12/20 02:06:21;;;;;;;17.47;12.20;;;;;;;-0.17;100.00;95192.09;4958951;28;20201;-73
2021/12/20 02:08:47;;;;;;;19.50;11.57;;;;;;;-0.19;100.00;95180.97;4938046;29;20190;-73
2021/12/20 02:11:13;;;;;;;19.20;12.17;;;;;;;-0.14;100.00;95175.22;4954214;28;20228;-73
2021/12/20 02:13:40;;;;;;;19.37;11.67;;;;;;;-0.20;100.00;95182.88;4953658;29;20194;-73
2021/12/20 02:16:07;;;;;;;19.63;12.00;;;;;;;-0.14;100.00;95178.66;4952912;29;20197;-73
2021/12/20 02:18:34;;;;;;;20.43;13.20;;;;;;;0.00;100.00;95172.56;4954727;28;20280;-73
2021/12/20 02:21:00;;;;;;;20.47;12.13;;;;;;;0.15;100.00;95170.66;4938205;28;20234;-72
2021/12/20 02:23:27;;;;;;;20.93;12.37;;;;;;;0.09;100.00;95180.22;4949241;28;20200;-72
2021/12/20 02:25:52;;;;;;;20.00;11.57;;;;;;;-0.01;100.00;95179.84;4946624;28;20193;-74
2021/12/20 02:28:20;;;;;;;20.67;13.30;;;;;;;0.24;100.00;95181.78;4951686;28;20229;-73
2021/12/20 02:38:47;;;;;;;21.30;12.00;;;;;;;0.74;100.00;95191.31;4953381;29;20248;-73
2021/12/20 02:41:28;;;;;;;22.20;14.23;;;;;;;0.65;100.00;95186.34;4935570;29;20218;-73
2021/12/20 02:43:57;;;;;;;19.67;12.40;;;;;;;0.57;100.00;95187.50;4968178;28;20189;-73
2021/12/20 02:48:58;;;;;;;21.20;12.87;;;;;;;0.74;100.00;95165.22;4950045;28;20201;-73
2021/12/20 02:51:26;;;;;;;16.97;11.70;;;;;;;0.55;100.00;95178.28;4952866;28;20229;-73
2021/12/20 02:53:52;;;;;;;21.80;12.57;;;;;;;0.61;100.00;95182.13;4954191;28;20270;-73
2021/12/20 02:56:19;;;;;;;21.27;13.87;;;;;;;0.66;100.00;95171.00;4943632;29;20249;-73
2021/12/20 02:58:44;;;;;;;20.17;12.63;;;;;;;0.81;100.00;95167.88;4951689;29;20229;-73
2021/12/20 03:01:11;;;;;;;19.50;12.87;;;;;;;0.75;100.00;95174.78;4960145;28;20259;-73
2021/12/20 03:03:36;;;;;;;18.40;11.93;;;;;;;0.71;100.00;95163.28;4965440;28;20209;-73
2021/12/20 03:06:14;;;;;;;19.07;12.03;;;;;;;0.69;100.00;95178.28;4937452;28;20203;-72
2021/12/20 03:08:44;;;;;;;18.30;10.70;;;;;;;0.59;100.00;95179.06;4942209;28;20201;-73
2021/12/20 03:11:10;;;;;;;20.00;12.10;;;;;;;0.70;100.00;95164.44;4965946;28;20212;-72
2021/12/20 03:13:35;;;;;;;18.13;11.67;;;;;;;0.56;100.00;95167.16;4955532;28;20241;-73
2021/12/20 03:16:01;;;;;;;19.40;12.47;;;;;;;0.74;100.00;95159.06;4950513;29;20194;-72
2021/12/20 03:18:27;;;;;;;19.23;12.10;;;;;;;0.65;100.00;95166.75;4950619;29;20194;-72
2021/12/20 03:20:53;;;;;;;20.70;12.20;;;;;;;0.74;100.00;95165.22;4953017;28;20645;-73
2021/12/20 03:23:18;;;;;;;15.77;11.07;;;;;;;0.68;100.00;95182.13;4958739;28;20189;-72
2021/12/20 03:25:44;;;;;;;19.03;12.27;;;;;;;0.70;100.00;95169.81;4951817;28;20194;-72
2021/12/20 03:28:12;;;;;;;19.17;11.50;;;;;;;0.60;100.00;95185.94;4948883;29;20198;-72
2021/12/20 03:30:38;;;;;;;15.70;10.63;;;;;;;0.68;100.00;95182.13;4938679;28;20221;-72
2021/12/20 03:33:03;;;;;;;17.97;11.63;;;;;;;0.76;100.00;95176.34;4956713;28;20212;-73
2021/12/20 03:35:29;;;;;;;18.53;12.20;;;;;;;0.87;100.00;95184.38;4953651;28;20280;-72
2021/12/20 03:37:55;;;;;;;16.63;10.87;;;;;;;0.80;100.00;95179.78;4951873;28;20241;-72
2021/12/20 03:40:20;;;;;;;19.20;12.20;;;;;;;0.76;100.00;95179.03;4952604;28;20213;-72
2021/12/20 03:42:46;;;;;;;17.70;11.57;;;;;;;0.65;100.00;95172.13;4953093;28;20217;-72
2021/12/20 03:45:14;;;;;;;17.30;11.80;;;;;;;0.62;100.00;95168.31;4919897;29;20719;-72
2021/12/20 03:47:41;;;;;;;17.07;11.80;;;;;;;0.73;100.00;95165.59;4927908;29;20202;-72
2021/12/20 03:50:08;;;;;;;17.90;11.73;;;;;;;0.68;100.00;95163.31;4932983;29;20281;-72
2021/12/20 03:52:38;;;;;;;19.13;11.93;;;;;;;0.40;100.00;95179.47;4933427;29;20660;-72
2021/12/20 03:55:08;;;;;;;18.57;12.27;;;;;;;0.51;100.00;95177.53;4953088;28;20273;-72
2021/12/20 03:57:34;;;;;;;18.20;11.87;;;;;;;0.56;100.00;95164.47;4951309;29;20652;-72
2021/12/20 04:00:00;;;;;;;17.77;11.73;;;;;;;0.61;100.00;95171.38;4950983;28;20216;-72
2021/12/20 04:02:27;;;;;;;18.93;12.17;;;;;;;0.57;100.00;95178.66;4956348;28;20189;-72
2021/12/20 04:04:52;;;;;;;15.80;11.77;;;;;;;0.46;100.00;95173.31;4963347;28;20660;-72
2021/12/20 04:07:18;;;;;;;16.37;11.10;;;;;;;0.41;100.00;95187.13;4951894;29;20201;-73
2021/12/20 04:09:44;;;;;;;18.40;12.13;;;;;;;0.40;100.00;95179.47;4944651;28;20288;-72
2021/12/20 04:12:10;;;;;;;20.87;13.23;;;;;;;0.51;100.00;95180.97;4959219;28;20221;-72
2021/12/20 04:14:35;;;;;;;17.30;11.53;;;;;;;0.70;100.00;95172.50;4952797;28;20208;-72
2021/12/20 04:17:01;;;;;;;18.27;12.27;;;;;;;0.64;100.00;95179.44;4947351;29;20278;-72
2021/12/20 04:19:27;;;;;;;17.90;12.40;;;;;;;0.70;100.00;95182.47;4945772;29;20257;-72
2021/12/20 04:21:52;;;;;;;19.73;12.53;;;;;;;0.73;100.00;95179.03;4953107;28;20220;-72
2021/12/20 04:24:18;;;;;;;18.77;11.90;;;;;;;0.58;100.00;95180.97;4969062;28;20199;-71
2021/12/20 04:26:44;;;;;;;19.03;12.83;;;;;;;0.58;100.00;95188.25;4953837;28;20672;-73
2021/12/20 04:29:09;;;;;;;19.00;12.77;;;;;;;0.62;100.00;95199.78;4954878;29;20208;-72
2021/12/20 04:31:36;;;;;;;19.67;12.30;;;;;;;0.70;100.00;95179.78;4956774;28;20710;-72
2021/12/20 04:34:02;;;;;;;18.33;12.33;;;;;;;0.68;100.00;95185.56;4967077;28;20267;-72
2021/12/20 04:36:29;;;;;;;17.13;11.73;;;;;;;0.67;100.00;95181.34;4958923;28;20189;-72
2021/12/20 04:38:56;;;;;;;18.37;12.17;;;;;;;0.60;100.00;95181.34;4948578;28;20197;-72
2021/12/20 04:41:21;;;;;;;21.13;13.23;;;;;;;0.62;100.00;95175.59;4952890;28;20306;-72
2021/12/20 04:43:47;;;;;;;18.63;12.40;;;;;;;0.82;100.00;95182.06;4954732;28;20668;-72
2021/12/20 04:46:13;;;;;;;18.17;12.23;;;;;;;0.89;100.00;95184.75;4955291;28;20202;-72
2021/12/20 04:48:38;;;;;;;20.60;12.30;;;;;;;0.95;100.00;95183.22;4954438;29;20202;-72
2021/12/20 04:51:04;;;;;;;22.13;13.53;;;;;;;0.90;100.00;95186.31;4954521;28;20254;-72
2021/12/20 04:53:30;;;;;;;19.63;12.13;;;;;;;0.95;100.00;95199.34;4956514;28;20292;-73
2021/12/20 04:55:56;;;;;;;21.57;13.17;;;;;;;0.86;100.00;95190.91;4955504;29;20223;-72
2021/12/20 04:58:22;;;;;;;21.47;13.43;;;;;;;0.87;100.00;95195.13;4952732;29;20193;-73
2021/12/20 05:00:51;;;;;;;23.90;13.47;;;;;;;0.85;100.00;95195.50;4955699;28;20237;-73
2021/12/20 05:03:16;;;;;;;20.83;13.27;;;;;;;0.68;100.00;95200.94;4934961;29;20221;-73
2021/12/20 05:05:42;;;;;;;20.43;13.10;;;;;;;0.90;100.00;95189.75;4947437;28;20324;-73
2021/12/20 05:08:10;;;;;;;20.63;13.23;;;;;;;0.93;100.00;95193.59;4948549;28;20288;-72
2021/12/20 05:10:38;;;;;;;20.30;13.57;;;;;;;0.83;100.00;95194.38;4969100;28;20222;-73
2021/12/20 05:13:06;;;;;;;20.60;13.63;;;;;;;0.94;100.00;95195.88;4954501;28;20218;-73
2021/12/20 05:15:33;;;;;;;19.57;12.73;;;;;;;0.84;100.00;95202.06;4952982;28;20202;-72
2021/12/20 05:17:59;;;;;;;16.50;12.40;;;;;;;0.77;100.00;95207.44;4954975;28;20194;-72
2021/12/20 05:20:26;;;;;;;18.63;12.60;;;;;;;0.67;100.00;95200.16;4954771;29;20213;-72
2021/12/20 05:22:55;;;;;;;17.40;11.83;;;;;;;0.77;100.00;95204.75;4957529;28;20564;-73
2021/12/20 05:25:22;;;;;;;21.67;12.63;;;;;;;0.85;100.00;95206.25;4925953;29;20300;-73
2021/12/20 05:27:48;;;;;;;22.17;13.73;;;;;;;0.92;100.00;95205.47;4936368;29;20691;-72
2021/12/20 05:30:17;;;;;;;17.07;11.93;;;;;;;0.85;100.00;95208.19;4955824;28;20214;-72
2021/12/20 05:32:43;;;;;;;19.13;12.80;;;;;;;0.87;100.00;95211.25;4932368;28;20245;-72
2021/12/20 05:35:12;;;;;;;17.47;11.33;;;;;;;0.84;100.00;95201.28;4961044;28;20194;-73
2021/12/20 05:37:38;;;;;;;20.53;12.93;;;;;;;1.00;100.00;95212.41;4953243;29;20194;-73
2021/12/20 05:40:07;;;;;;;19.73;12.27;;;;;;;0.97;100.00;95205.06;4953576;29;20265;-72
2021/12/20 05:42:32;;;;;;;17.53;11.83;;;;;;;1.02;100.00;95213.53;4955088;28;20178;-73
2021/12/20 05:44:58;;;;;;;18.83;12.10;;;;;;;0.96;100.00;95222.38;4955566;28;20185;-73
2021/12/20 05:47:24;;;;;;;18.83;12.73;;;;;;;1.01;100.00;95216.59;4953808;28;20205;-73
2021/12/20 05:49:51;;;;;;;18.50;12.13;;;;;;;1.07;100.00;95215.03;4934192;29;20248;-73
2021/12/20 05:52:17;;;;;;;17.43;11.87;;;;;;;0.84;100.00;95220.09;4953733;29;20316;-73
2021/12/20 05:54:43;;;;;;;19.07;11.60;;;;;;;0.86;100.00;95258.13;4954279;29;20640;-73
2021/12/20 05:57:09;;;;;;;20.67;12.20;;;;;;;0.97;100.00;95223.91;4953979;28;20194;-73
2021/12/20 05:59:35;;;;;;;20.50;12.47;;;;;;;0.93;100.00;95223.16;4944862;28;20694;-73
2021/12/20 06:02:01;;;;;;;18.20;12.03;;;;;;;0.84;100.00;95223.56;4957970;28;20212;-73
2021/12/20 06:04:27;;;;;;;19.30;12.10;;;;;;;0.93;100.00;95215.84;4966475;28;20622;-72
2021/12/20 06:06:53;;;;;;;18.97;12.17;;;;;;;0.86;100.00;95225.84;4959095;28;20190;-72
2021/12/20 06:09:18;;;;;;;19.23;11.30;;;;;;;0.75;100.00;95225.09;4942645;29;20662;-73
2021/12/20 06:11:44;;;;;;;20.00;13.07;;;;;;;0.84;100.00;95228.16;4953467;28;20707;-73
2021/12/20 06:14:09;;;;;;;18.83;12.40;;;;;;;0.76;100.00;95232.03;4954857;29;20186;-72
2021/12/20 06:16:35;;;;;;;18.53;11.40;;;;;;;0.77;100.00;95228.16;4949862;29;20559;-73
2021/12/20 06:19:01;;;;;;;19.53;12.10;;;;;;;0.78;100.00;95229.72;4953305;29;20189;-73
2021/12/20 06:21:27;;;;;;;16.90;11.73;;;;;;;0.86;100.00;95244.69;4954363;28;20617;-73
2021/12/20 06:23:53;;;;;;;17.23;11.13;;;;;;;0.77;100.00;95233.53;4965174;28;20190;-73
2021/12/20 06:26:23;;;;;;;17.93;12.27;;;;;;;0.79;100.00;95237.41;4949335;28;20719;-73
2021/12/20 06:28:50;;;;;;;17.27;11.97;;;;;;;1.00;100.00;95221.22;4935407;29;20186;-73
2021/12/20 06:31:16;;;;;;;18.97;12.87;;;;;;;1.06;100.00;95229.66;4934640;29;20206;-73
2021/12/20 06:33:41;;;;;;;16.93;11.67;;;;;;;1.11;100.00;95226.56;4964391;28;20240;-72
2021/12/20 06:36:07;;;;;;;17.73;11.87;;;;;;;0.97;100.00;95238.13;4946870;28;20781;-73
2021/12/20 06:38:34;;;;;;;18.27;11.80;;;;;;;0.92;100.00;95235.81;4942207;29;20203;-72
2021/12/20 06:41:00;;;;;;;18.63;11.87;;;;;;;0.94;100.00;95238.91;4942987;29;20304;-73
2021/12/20 06:43:26;;;;;;;16.97;11.77;;;;;;;0.87;100.00;95235.44;4954565;28;20341;-73
2021/12/20 06:45:52;;;;;;;18.00;12.63;;;;;;;0.85;100.00;95240.44;4953264;28;20224;-73
2021/12/20 06:48:18;;;;;;;17.00;11.33;;;;;;;0.65;100.00;95250.06;4941539;29;20248;-73
2021/12/20 06:50:43;;;;;;;16.97;11.63;;;;;;;0.81;100.00;95256.59;4933767;29;20269;-73
2021/12/20 06:53:09;;;;;;;18.60;12.23;;;;;;;0.78;100.00;95249.28;4935345;29;20245;-73
2021/12/20 06:55:35;;;;;;;18.93;11.57;;;;;;;1.02;100.00;95255.78;4934059;29;20260;-73
2021/12/20 06:58:02;;;;;;;19.43;12.10;;;;;;;1.05;100.00;95245.00;4937953;29;20190;-73
2021/12/20 07:00:28;;;;;;;19.70;12.20;;;;;;;1.00;100.00;95248.09;4951053;28;20295;-73
2021/12/20 07:02:54;;;;;;;15.43;10.70;;;;;;;0.94;100.00;95257.72;4952239;28;20190;-72
2021/12/20 07:05:20;;;;;;;18.40;12.57;;;;;;;1.06;100.00;95259.25;4950583;29;20256;-73
2021/12/20 07:07:46;;;;;;;17.23;12.03;;;;;;;1.24;100.00;95257.25;4951197;29;20213;-73
2021/12/20 07:10:11;;;;;;;17.80;11.33;;;;;;;1.08;100.00;95252.34;4954235;29;20194;-72
2021/12/20 07:12:38;;;;;;;17.00;11.37;;;;;;;1.01;100.00;95244.28;4953728;28;20230;-73
2021/12/20 07:15:06;;;;;;;18.83;11.87;;;;;;;1.33;100.00;95248.78;4952617;29;20193;-73
2021/12/20 07:17:32;;;;;;;20.20;12.07;;;;;;;1.24;100.00;95247.28;4937680;29;20202;-73
2021/12/20 07:20:00;;;;;;;16.57;11.13;;;;;;;1.29;100.00;95239.97;4951008;29;20293;-73
2021/12/20 07:22:26;;;;;;;16.20;11.20;;;;;;;1.22;100.00;95243.47;4953190;28;20189;-72
2021/12/20 07:24:52;;;;;;;23.70;12.87;;;;;;;1.36;100.00;95250.72;4956326;28;20330;-73
2021/12/20 07:27:18;;;;;;;19.37;12.03;;;;;;;1.17;100.00;95247.28;4934388;29;20274;-73
2021/12/20 07:29:44;;;;;;;16.87;12.03;;;;;;;1.32;100.00;95242.66;4961247;28;20190;-72
2021/12/20 07:32:11;;;;;;;19.10;11.93;;;;;;;1.19;100.00;95257.66;4957597;28;20225;-73
2021/12/20 07:34:38;;;;;;;17.00;10.87;;;;;;;1.29;100.00;95248.78;4960115;28;20233;-73
2021/12/20 07:37:05;;;;;;;18.67;12.57;;;;;;;1.29;100.00;95256.13;4946746;29;20206;-73
2021/12/20 07:39:31;;;;;;;18.00;12.40;;;;;;;1.16;100.00;95264.59;4940591;29;20280;-73
2021/12/20 07:41:57;;;;;;;19.63;12.47;;;;;;;1.18;100.00;95256.91;4953668;28;20727;-73
2021/12/20 07:44:25;;;;;;;17.53;12.43;;;;;;;1.25;100.00;95261.50;4948949;29;20723;-72
2021/12/20 07:46:50;;;;;;;19.63;12.03;;;;;;;1.15;100.00;95254.22;4932588;29;20281;-72
2021/12/20 07:49:16;;;;;;;18.87;11.80;;;;;;;1.21;100.00;95264.19;4952364;29;20193;-72
2021/12/20 07:51:42;;;;;;;17.00;11.37;;;;;;;1.39;100.00;95268.78;4951311;28;20217;-72
2021/12/20 07:54:08;;;;;;;17.67;11.30;;;;;;;1.40;100.00;95272.97;4950132;29;20200;-73
2021/12/20 07:56:33;;;;;;;18.47;12.07;;;;;;;1.45;100.00;95261.81;4934295;29;20183;-73
2021/12/20 07:58:59;;;;;;;20.50;12.40;;;;;;;1.33;100.00;95254.94;4933087;29;20242;-73
2021/12/20 08:01:26;;;;;;;18.73;11.57;;;;;;;1.38;100.00;95262.59;4944898;28;20703;-73
2021/12/20 08:03:52;;;;;;;20.10;12.10;;;;;;;1.39;100.00;95261.47;4956202;28;20195;-73
2021/12/20 08:06:18;;;;;;;20.37;12.53;;;;;;;1.36;100.00;95256.84;4948621;29;20668;-73
2021/12/20 08:08:44;;;;;;;16.67;12.20;;;;;;;1.54;100.00;95256.78;4945229;29;20735;-73
2021/12/20 08:11:10;;;;;;;20.10;14.00;;;;;;;1.39;100.00;95264.16;4947716;28;20214;-72
2021/12/20 08:13:44;;;;;;;20.40;13.93;;;;;;;1.31;100.00;95267.25;4962840;28;20284;-73
2021/12/20 08:16:11;;;;;;;22.00;13.23;;;;;;;1.38;100.00;95251.06;4960544;28;20193;-73
2021/12/20 08:18:38;;;;;;;20.50;13.03;;;;;;;1.35;100.00;95257.25;4951476;28;20248;-73
2021/12/20 08:21:03;;;;;;;21.57;13.70;;;;;;;1.54;100.00;95254.88;4937479;29;20256;-73
2021/12/20 08:23:29;;;;;;;18.73;12.53;;;;;;;1.47;100.00;95268.34;4960455;28;20272;-73
2021/12/20 08:25:55;;;;;;;18.17;11.80;;;;;;;1.33;100.00;95259.53;4972460;28;20189;-73
2021/12/20 08:28:20;;;;;;;19.00;12.47;;;;;;;1.53;100.00;95261.41;4958218;28;20229;-72
2021/12/20 08:30:46;;;;;;;21.17;12.70;;;;;;;1.47;100.00;95270.28;4934010;29;20210;-72
2021/12/20 08:33:12;;;;;;;18.87;11.53;;;;;;;1.63;100.00;95265.22;4955685;28;20225;-73
2021/12/20 08:35:38;;;;;;;17.23;11.53;;;;;;;1.54;100.00;95267.56;4970990;28;20193;-73
2021/12/20 08:38:03;;;;;;;21.57;12.40;;;;;;;1.51;100.00;95274.47;4947200;28;20209;-73
2021/12/20 08:40:29;;;;;;;17.40;11.50;;;;;;;1.49;100.00;95274.13;4951678;28;20201;-73
2021/12/20 08:42:55;;;;;;;19.73;11.57;;;;;;;1.48;100.00;95269.88;4952606;28;20186;-73
2021/12/20 08:45:21;;;;;;;19.27;12.27;;;;;;;1.55;100.00;95272.56;4952598;28;20228;-73
2021/12/20 08:47:47;;;;;;;17.97;11.83;;;;;;;1.39;100.00;95268.78;4941216;28;20207;-73
2021/12/20 08:50:16;;;;;;;19.43;12.07;;;;;;;1.48;100.00;95272.56;4951077;28;20249;-73
2021/12/20 08:52:42;;;;;;;19.50;11.97;;;;;;;1.37;100.00;95287.22;4953001;28;20218;-73
2021/12/20 08:55:09;;;;;;;18.17;12.07;;;;;;;1.43;100.00;95272.97;4953024;28;20194;-73
2021/12/20 08:57:35;;;;;;;18.53;11.87;;;;;;;1.63;100.00;95276.00;4946607;29;20206;-73
2021/12/20 09:00:04;;;;;;;19.63;12.63;;;;;;;1.73;100.00;95278.63;4947229;29;20197;-73
2021/12/20 09:02:30;;;;;;;16.57;11.63;;;;;;;1.77;100.00;95278.63;4959323;28;20189;-73
2021/12/20 09:04:56;;;;;;;17.87;11.80;;;;;;;2.03;100.00;95278.88;4958025;28;20256;-73
2021/12/20 09:07:21;;;;;;;15.80;11.23;;;;;;;1.75;100.00;95292.47;4933298;29;20422;-73
2021/12/20 09:09:48;;;;;;;17.03;11.43;;;;;;;1.67;100.00;95290.19;4944798;28;20221;-72
2021/12/20 09:12:18;;;;;;;18.43;12.10;;;;;;;1.74;100.00;95293.63;4955921;28;20222;-72
2021/12/20 09:14:45;;;;;;;22.67;12.37;;;;;;;1.83;100.00;95295.91;4956082;28;20632;-73
2021/12/20 09:17:10;;;;;;;18.60;12.33;;;;;;;1.93;100.00;95292.41;4955105;28;20656;-73
2021/12/20 09:19:36;;;;;;;19.70;11.77;;;;;;;1.93;100.00;95293.19;4954110;28;20198;-73
2021/12/20 09:22:11;;;;;;;18.13;11.40;;;;;;;2.01;100.00;95291.97;4955971;28;20206;-73
2021/12/20 09:24:38;;;;;;;16.13;11.83;;;;;;;1.97;100.00;95293.16;4971179;28;20204;-72
2021/12/20 09:27:04;;;;;;;19.77;12.83;;;;;;;2.05;100.00;95295.41;4952970;28;20205;-73
2021/12/20 09:29:30;;;;;;;19.07;11.13;;;;;;;2.10;100.00;95297.72;4954125;29;20668;-73
2021/12/20 09:31:57;;;;;;;18.40;12.23;;;;;;;2.10;100.00;95292.31;4958731;28;20228;-73
2021/12/20 09:34:23;;;;;;;23.43;11.97;;;;;;;2.06;100.00;95294.25;4967324;28;20193;-73
2021/12/20 09:36:48;;;;;;;18.83;12.13;;;;;;;2.13;100.00;95291.53;4947690;28;20535;-73
2021/12/20 09:39:16;;;;;;;19.33;12.23;;;;;;;2.12;100.00;95295.38;4936472;29;20225;-72
2021/12/20 09:44:09;;;;;;;19.13;11.67;;;;;;;5.87;100.00;95291.88;4955414;28;20676;-73
2021/12/20 09:46:36;;;;;;;17.30;11.23;;;;;;;4.71;100.00;95290.41;4949395;29;20303;-73
2021/12/20 09:49:03;;;;;;;19.47;11.87;;;;;;;3.22;100.00;95285.31;4934817;29;20192;-73
2021/12/20 09:51:29;;;;;;;16.43;11.67;;;;;;;3.08;100.00;95290.84;4934743;29;20365;-73
2021/12/20 09:53:55;;;;;;;16.30;11.20;;;;;;;2.77;100.00;95297.25;4949440;29;20829;-73
2021/12/20 09:56:24;;;;;;;18.70;11.07;;;;;;;2.53;100.00;95289.38;4935296;29;20829;-73
2021/12/20 09:58:53;;;;;;;19.47;11.53;;;;;;;2.44;100.00;95289.81;4945098;29;20205;-73
2021/12/20 10:01:21;;;;;;;17.27;11.30;;;;;;;2.35;100.00;95281.38;4954447;28;20253;-73
2021/12/20 10:03:47;;;;;;;25.43;11.37;;;;;;;2.26;100.00;95289.13;4966380;28;20198;-73
2021/12/20 10:06:15;;;;;;;19.53;10.50;;;;;;;2.33;100.00;95289.88;4955256;29;20268;-73
2021/12/20 10:08:50;;;;;;;16.70;11.17;;;;;;;2.23;100.00;95281.84;4949880;28;20193;-73
2021/12/20 10:11:29;;;;;;;16.53;10.80;;;;;;;2.11;100.00;95279.59;4953602;29;20213;-73
2021/12/20 10:14:19;;;;;;;19.57;12.43;;;;;;;2.29;100.00;95282.97;4955009;28;20193;-73
2021/12/20 10:16:45;;;;;;;20.87;12.23;;;;;;;2.36;100.00;95274.81;4942176;29;20198;-73
2021/12/20 10:19:31;;;;;;;16.10;11.00;;;;;;;2.44;100.00;95274.38;4949235;29;20209;-73
2021/12/20 10:21:58;;;;;;;19.33;11.53;;;;;;;2.40;100.00;95270.19;4952738;28;20296;-73
2021/12/20 10:24:33;;;;;;;17.80;10.63;;;;;;;2.50;100.00;95272.03;4969543;28;20193;-73
2021/12/20 10:26:59;;;;;;;21.07;11.30;;;;;;;2.39;100.00;95272.09;4955818;28;20193;-73
2021/12/20 10:29:25;;;;;;;18.57;11.23;;;;;;;2.21;100.00;95268.00;4953654;29;20209;-73
2021/12/20 10:31:51;;;;;;;22.37;11.77;;;;;;;2.09;100.00;95263.84;4957226;28;20229;-72
2021/12/20 10:34:19;;;;;;;18.03;11.97;;;;;;;2.17;100.00;95268.00;4961807;28;20198;-73
2021/12/20 10:36:56;;;;;;;20.60;12.60;;;;;;;2.14;100.00;95262.66;4966444;28;20194;-73
2021/12/20 10:39:49;;;;;;;19.83;11.53;;;;;;;2.41;100.00;95266.31;4945472;29;20205;-73
2021/12/20 10:42:24;;;;;;;21.63;12.60;;;;;;;2.58;100.00;95270.06;4954821;28;20205;-73
2021/12/20 10:45:20;;;;;;;21.90;12.87;;;;;;;2.41;100.00;95272.47;4952955;29;20201;-73
2021/12/20 10:47:48;;;;;;;20.10;12.40;;;;;;;2.33;100.00;95260.22;4949934;29;20202;-73
2021/12/20 10:50:29;;;;;;;20.03;12.23;;;;;;;2.35;100.00;95263.31;4953367;29;20221;-73
2021/12/20 10:53:20;;;;;;;28.80;13.33;;;;;;;2.20;100.00;95271.88;4954570;28;20703;-73
2021/12/20 10:56:03;;;;;;;19.17;11.93;;;;;;;2.31;100.00;95267.16;4951832;28;20288;-73
2021/12/20 10:58:34;;;;;;;22.77;11.63;;;;;;;2.42;100.00;95255.16;4943097;29;20201;-73
2021/12/20 11:01:04;;;;;;;19.90;12.93;;;;;;;2.21;100.00;95263.38;4954103;28;20632;-73
2021/12/20 11:03:35;;;;;;;20.97;12.50;;;;;;;2.23;100.00;95263.75;4960042;28;20249;-72
2021/12/20 11:11:22;;;;;;;19.03;11.50;;;;;;;2.75;100.00;95255.69;4953927;28;20284;-73
2021/12/20 11:13:48;;;;;;;18.17;10.20;;;;;;;2.59;100.00;95250.81;4953794;28;20198;-73
2021/12/20 11:16:30;;;;;;;18.07;10.13;;;;;;;2.63;100.00;95246.13;4948923;29;20387;-73
2021/12/20 11:19:18;;;;;;;21.80;10.63;;;;;;;2.55;100.00;95251.97;4952250;29;20194;-73
2021/12/20 11:21:54;;;;;;;20.47;11.10;;;;;;;2.81;100.00;95257.56;4952950;28;20221;-73
2021/12/20 11:24:46;;;;;;;18.67;11.63;;;;;;;2.88;100.00;95262.13;4961364;28;20193;-73
2021/12/20 11:27:33;;;;;;;14.63;9.17;;;;;;;2.83;100.00;95244.44;4939880;29;20277;-73
2021/12/20 11:30:03;;;;;;;15.10;7.43;;;;;;;2.83;100.00;95249.06;4952557;28;20197;-73
2021/12/20 11:32:28;;;;;;;13.27;8.93;;;;;;;2.98;100.00;95248.53;4945421;28;20222;-73
2021/12/20 11:34:54;;;;;;;12.87;8.07;;;;;;;2.83;100.00;95252.53;4961065;28;20202;-73
2021/12/20 11:37:26;;;;;;;13.33;8.97;;;;;;;2.67;100.00;95251.50;4953418;29;20225;-73
2021/12/20 11:39:53;;;;;;;17.80;9.80;;;;;;;2.64;100.00;95244.22;4953149;29;20248;-73
2021/12/20 11:42:20;;;;;;;19.03;9.93;;;;;;;2.52;100.00;95258.16;4953318;28;20216;-73
2021/12/20 11:44:47;;;;;;;19.10;10.83;;;;;;;2.65;100.00;95257.28;4952169;29;20597;-73